Skip Navigation LinksHome page > Weather > Current weather Skip Navigation Links

Current Weather

San Diego Intl-Lindbergh Fld, San Diego

For information only: do not use for flight planning or navigation.
Latest weather
Observation time Thursday, November 21, 2019 11:51 AM PST
Local time Thursday, November 21, 2019 12:01 PM PST
Flight conditions Visual Meteorological Conditions
Winds
Wind direction variable
Wind speed 6 mph
Visibility 10 mi.
Sky condition
Ceiling 7,000 ft. broken clouds
Cloud layer few clouds 2,300 ft.
Cloud layer scattered clouds 3,500 ft.
Cloud layer broken clouds 7,000 ft.
Temperature 65°F
Dewpoint 54°F
Altimeter 29.92 in.Hg
Derived measurements
Relative humidity 68%
Density altitude 602 ft.
Sea-level pressure 29.92 in.Hg
Remarks
Automated weather observing station with precipitation discriminator.
METAR KSAN 211951Z VRB05KT 10SM FEW023 SCT035 BKN070 18/12 A2992 RMK AO2 SLP132 T01830122

Settings

Location code

InnerDrive.Weather 4.0.6770.0 Release CLR 4.0.30319.42000
Copyright ©2018 Inner Drive Technology. All rights reserved. Portions Copyright ©1986-2018 David Braverman.

Find weather

Site navigation


Skip Navigation Links

Place info

Page info

PayPal - The safer, easier way to pay online!

Return home.

Copyright ©2019 Inner Drive Technology. Purveyors of fine, hand-crafted computer software. Page printed 2019-11-21T20:01:12 UTC.